createdAt,value
2022-08-21T00:00:45.688Z,996.34
2022-08-21T00:01:45.717Z,996.41
2022-08-21T00:02:46.010Z,996.28
2022-08-21T00:03:45.648Z,996.31
2022-08-21T00:04:48.300Z,996.31
2022-08-21T00:05:46.626Z,996.28
2022-08-21T00:06:45.653Z,996.31
2022-08-21T00:07:45.784Z,996.34
2022-08-21T00:08:45.648Z,996.26
2022-08-21T00:09:45.741Z,996.26
2022-08-21T00:10:45.662Z,996.25
2022-08-21T00:11:45.644Z,996.18
2022-08-21T00:12:45.634Z,996.22
2022-08-21T00:13:45.685Z,996.14
2022-08-21T00:14:45.617Z,996.22
2022-08-21T00:15:45.612Z,996.20
2022-08-21T00:16:45.597Z,996.25
2022-08-21T00:17:45.594Z,996.15
2022-08-21T00:18:45.614Z,996.18
2022-08-21T00:19:45.598Z,996.20
2022-08-21T00:20:45.556Z,996.16
2022-08-21T00:21:45.562Z,996.25
2022-08-21T00:22:46.564Z,996.15
2022-08-21T00:23:45.596Z,996.21
2022-08-21T00:24:45.529Z,996.16
2022-08-21T00:25:45.548Z,996.18
2022-08-21T00:26:45.551Z,996.13
2022-08-21T00:27:45.551Z,996.23
2022-08-21T00:28:45.596Z,996.20
2022-08-21T00:29:45.554Z,996.20
2022-08-21T00:30:45.567Z,996.19
2022-08-21T00:31:45.546Z,996.17
2022-08-21T00:32:45.559Z,996.20
2022-08-21T00:33:45.496Z,996.10
2022-08-21T00:34:45.547Z,996.13
2022-08-21T00:35:45.482Z,996.08
2022-08-21T00:36:45.471Z,996.08
2022-08-21T00:37:45.447Z,996.04
2022-08-21T00:38:45.440Z,996.01
2022-08-21T00:39:45.539Z,996.07
2022-08-21T00:40:45.450Z,996.00
2022-08-21T00:41:45.431Z,996.03
2022-08-21T00:42:59.231Z,996.01
2022-08-21T00:43:47.457Z,996.03
2022-08-21T00:44:45.464Z,995.93
2022-08-21T00:45:45.408Z,996.00
2022-08-21T00:46:45.421Z,996.01
2022-08-21T00:47:45.326Z,995.94
2022-08-21T00:48:45.326Z,995.95
2022-08-21T00:49:45.315Z,995.93
2022-08-21T00:50:45.345Z,995.97
2022-08-21T00:51:45.293Z,995.99
2022-08-21T00:52:45.293Z,995.95
2022-08-21T00:53:45.270Z,996.00
2022-08-21T00:54:46.636Z,996.07
2022-08-21T00:55:45.282Z,996.02
2022-08-21T00:56:45.273Z,996.05
2022-08-21T00:57:45.315Z,995.99
2022-08-21T00:58:45.302Z,996.05
2022-08-21T00:59:45.311Z,996.08
2022-08-21T01:00:45.402Z,996.04
2022-08-21T01:01:45.305Z,996.07
2022-08-21T01:02:45.314Z,996.13
2022-08-21T01:03:45.379Z,996.04
2022-08-21T01:04:45.278Z,996.12
2022-08-21T01:05:45.268Z,996.12
2022-08-21T01:06:45.301Z,996.12
2022-08-21T01:07:45.263Z,996.09
2022-08-21T01:08:46.926Z,996.08
2022-08-21T01:09:45.241Z,996.12
2022-08-21T01:10:45.215Z,996.11
2022-08-21T01:11:45.247Z,996.15
2022-08-21T01:12:45.253Z,996.19
2022-08-21T01:13:45.211Z,996.16
2022-08-21T01:14:45.247Z,996.23
2022-08-21T01:15:45.223Z,996.21
2022-08-21T01:16:45.263Z,996.22
2022-08-21T01:17:45.164Z,996.20
2022-08-21T01:18:45.256Z,996.21
2022-08-21T01:19:45.148Z,996.20
2022-08-21T01:20:45.153Z,996.21
2022-08-21T01:21:45.155Z,996.20
2022-08-21T01:22:45.167Z,996.19
2022-08-21T01:23:45.177Z,996.16
2022-08-21T01:24:45.106Z,996.16
2022-08-21T01:25:45.146Z,996.20
2022-08-21T01:26:45.157Z,996.19
2022-08-21T01:27:45.120Z,996.14
2022-08-21T01:28:45.094Z,996.18
2022-08-21T01:29:45.128Z,996.13
2022-08-21T01:30:45.090Z,996.14
2022-08-21T01:31:45.135Z,996.20
2022-08-21T01:32:45.122Z,996.15
2022-08-21T01:33:45.076Z,996.18
2022-08-21T01:34:45.048Z,996.19
2022-08-21T01:35:44.981Z,996.18
2022-08-21T01:36:44.972Z,996.21
2022-08-21T01:37:44.945Z,996.21
2022-08-21T01:38:45.013Z,996.18
2022-08-21T01:39:45.006Z,996.18
2022-08-21T01:40:44.934Z,996.17
2022-08-21T01:41:45.008Z,996.12
2022-08-21T01:42:44.993Z,996.18
2022-08-21T01:43:45.012Z,996.15
2022-08-21T01:44:44.978Z,996.19
2022-08-21T01:45:44.914Z,996.16
2022-08-21T01:46:44.982Z,996.09
2022-08-21T01:47:44.948Z,996.12
2022-08-21T01:48:44.994Z,996.11
2022-08-21T01:49:44.986Z,996.13
2022-08-21T01:50:44.915Z,996.15
2022-08-21T01:51:44.920Z,996.06
2022-08-21T01:52:44.917Z,996.10
2022-08-21T01:53:44.921Z,996.09
2022-08-21T01:54:44.963Z,996.06
2022-08-21T01:55:44.907Z,996.05
2022-08-21T01:56:44.936Z,996.04
2022-08-21T01:57:44.910Z,995.97
2022-08-21T01:58:44.942Z,995.97
2022-08-21T01:59:44.995Z,996.03
2022-08-21T02:00:45.034Z,995.98
2022-08-21T02:01:44.862Z,995.98
2022-08-21T02:02:44.870Z,995.96
2022-08-21T02:03:44.825Z,995.98
2022-08-21T02:04:44.925Z,995.99
2022-08-21T02:05:44.852Z,995.97
2022-08-21T02:06:44.803Z,995.97
2022-08-21T02:07:44.833Z,995.95
2022-08-21T02:08:44.830Z,995.99
2022-08-21T02:09:44.805Z,996.00
2022-08-21T02:10:49.131Z,995.97
2022-08-21T02:11:44.813Z,996.02
2022-08-21T02:12:44.796Z,995.96
2022-08-21T02:13:44.775Z,995.92
2022-08-21T02:14:44.764Z,995.90
2022-08-21T02:15:44.812Z,995.86
2022-08-21T02:16:44.727Z,995.83
2022-08-21T02:17:44.780Z,995.83
2022-08-21T02:18:44.725Z,995.89
2022-08-21T02:19:44.765Z,995.87
2022-08-21T02:20:44.777Z,995.88
2022-08-21T02:21:44.749Z,995.88
2022-08-21T02:22:44.748Z,995.89
2022-08-21T02:23:44.775Z,995.91
2022-08-21T02:24:54.378Z,995.90
2022-08-21T02:25:45.738Z,995.87
2022-08-21T02:26:44.713Z,995.88
2022-08-21T02:27:44.697Z,995.86
2022-08-21T02:28:44.644Z,995.88
2022-08-21T02:29:44.691Z,995.81
2022-08-21T02:30:44.659Z,995.82
2022-08-21T02:31:44.639Z,995.76
2022-08-21T02:32:44.629Z,995.83
2022-08-21T02:33:44.625Z,995.85
2022-08-21T02:34:44.626Z,995.82
2022-08-21T02:35:44.633Z,995.87
2022-08-21T02:36:44.615Z,995.81
2022-08-21T02:37:45.585Z,995.86
2022-08-21T02:39:11.742Z,995.85
2022-08-21T02:39:45.558Z,995.80
2022-08-21T02:40:48.313Z,995.84
2022-08-21T02:41:45.608Z,995.94
2022-08-21T02:42:44.507Z,995.84
2022-08-21T02:43:44.468Z,995.91
2022-08-21T02:44:44.497Z,995.92
2022-08-21T02:45:44.503Z,995.90
2022-08-21T02:46:44.450Z,995.88
2022-08-21T02:47:44.498Z,995.90
2022-08-21T02:48:44.535Z,995.91
2022-08-21T02:49:44.538Z,995.94
2022-08-21T02:50:44.528Z,995.87
2022-08-21T02:51:44.561Z,995.96
2022-08-21T02:52:44.557Z,995.94
2022-08-21T02:53:44.513Z,995.86
2022-08-21T02:54:44.473Z,995.92
2022-08-21T02:55:44.530Z,995.91
2022-08-21T02:56:44.452Z,995.88
2022-08-21T02:57:44.513Z,995.86
2022-08-21T02:58:44.475Z,995.84
2022-08-21T02:59:44.434Z,995.88
2022-08-21T03:00:44.452Z,995.86
2022-08-21T03:01:44.478Z,995.85
2022-08-21T03:02:44.445Z,995.89
2022-08-21T03:03:44.993Z,995.93
2022-08-21T03:04:46.702Z,995.84
2022-08-21T03:05:45.442Z,995.84
2022-08-21T03:06:44.388Z,995.81
2022-08-21T03:07:44.460Z,995.75
2022-08-21T03:08:44.383Z,995.77
2022-08-21T03:09:55.302Z,995.83
2022-08-21T03:10:45.291Z,995.78
2022-08-21T03:11:45.431Z,995.73
2022-08-21T03:12:44.396Z,995.78
2022-08-21T03:13:44.421Z,995.75
2022-08-21T03:14:44.373Z,995.75
2022-08-21T03:15:44.335Z,995.73
2022-08-21T03:16:44.348Z,995.72
2022-08-21T03:18:50.937Z,995.77
2022-08-21T03:19:52.196Z,995.76
2022-08-21T03:20:52.136Z,995.81
2022-08-21T03:21:52.038Z,995.80
2022-08-21T03:22:52.902Z,995.81
2022-08-21T03:23:52.112Z,995.81
2022-08-21T03:24:52.140Z,995.83
2022-08-21T03:25:52.150Z,995.83
2022-08-21T03:26:52.146Z,995.78
2022-08-21T03:27:54.935Z,995.90
2022-08-21T03:28:53.176Z,995.78
2022-08-21T03:29:52.145Z,995.86
2022-08-21T03:30:52.086Z,995.82
2022-08-21T03:31:52.161Z,995.86
2022-08-21T03:32:52.074Z,995.83
2022-08-21T03:33:52.159Z,995.94
2022-08-21T03:34:52.054Z,995.92
2022-08-21T03:35:52.050Z,995.90
2022-08-21T03:36:52.020Z,995.88
2022-08-21T03:37:51.953Z,995.91
2022-08-21T03:38:52.047Z,995.89
2022-08-21T03:39:52.151Z,995.95
2022-08-21T03:40:52.051Z,995.93
2022-08-21T03:41:52.007Z,995.98
2022-08-21T03:42:51.998Z,995.92
2022-08-21T03:43:52.005Z,996.04
2022-08-21T03:44:52.013Z,996.00
2022-08-21T03:45:52.575Z,995.97
2022-08-21T03:46:52.015Z,995.96
2022-08-21T03:47:51.994Z,995.98
2022-08-21T03:48:51.987Z,996.00
2022-08-21T03:49:51.997Z,996.04
2022-08-21T03:50:52.001Z,996.00
2022-08-21T03:51:59.125Z,995.97
2022-08-21T03:52:52.992Z,995.98
2022-08-21T03:53:51.886Z,995.99
2022-08-21T03:54:52.053Z,996.01
2022-08-21T03:55:51.919Z,996.05
2022-08-21T03:56:51.816Z,996.08
2022-08-21T03:57:51.811Z,996.02
2022-08-21T03:58:51.796Z,996.02
2022-08-21T03:59:51.813Z,996.01
2022-08-21T04:00:51.824Z,996.00
2022-08-21T04:01:51.841Z,995.99
2022-08-21T04:02:51.773Z,996.07
2022-08-21T04:03:51.783Z,996.08
2022-08-21T04:04:51.764Z,996.13
2022-08-21T04:05:51.807Z,996.09
2022-08-21T04:06:51.726Z,996.14
2022-08-21T04:07:51.748Z,996.18
2022-08-21T04:08:51.703Z,996.15
2022-08-21T04:09:51.756Z,996.23
2022-08-21T04:10:51.823Z,996.26
2022-08-21T04:11:51.907Z,996.27
2022-08-21T04:12:51.814Z,996.25
2022-08-21T04:13:51.822Z,996.33
2022-08-21T04:14:51.771Z,996.29
2022-08-21T04:15:51.826Z,996.29
2022-08-21T04:16:51.981Z,996.26
2022-08-21T04:17:51.854Z,996.29
2022-08-21T04:18:51.737Z,996.35
2022-08-21T04:19:53.799Z,996.29
2022-08-21T04:20:52.737Z,996.36
2022-08-21T04:21:52.618Z,996.34
2022-08-21T04:22:51.983Z,996.31
2022-08-21T04:23:51.724Z,996.32
2022-08-21T04:24:51.681Z,996.34
2022-08-21T04:25:51.703Z,996.33
2022-08-21T04:26:51.667Z,996.37
2022-08-21T04:27:51.720Z,996.29
2022-08-21T04:28:51.682Z,996.34
2022-08-21T04:29:51.675Z,996.38
2022-08-21T04:30:51.656Z,996.36
2022-08-21T04:31:51.636Z,996.31
2022-08-21T04:32:51.712Z,996.30
2022-08-21T04:33:51.663Z,996.27
2022-08-21T04:34:51.682Z,996.40
2022-08-21T04:35:51.635Z,996.37
2022-08-21T04:36:51.649Z,996.33
2022-08-21T04:37:51.587Z,996.40
2022-08-21T04:38:51.720Z,996.42
2022-08-21T04:39:53.567Z,996.38
2022-08-21T04:40:52.635Z,996.38
2022-08-21T04:41:51.596Z,996.40
2022-08-21T04:42:51.619Z,996.42
2022-08-21T04:43:51.653Z,996.50
2022-08-21T04:44:51.580Z,996.44
2022-08-21T04:45:51.584Z,996.48
2022-08-21T04:46:51.534Z,996.55
2022-08-21T04:47:52.634Z,996.46
2022-08-21T04:48:51.517Z,996.57
2022-08-21T04:49:51.549Z,996.50
2022-08-21T04:50:51.478Z,996.51
2022-08-21T04:51:51.497Z,996.55
2022-08-21T04:52:51.507Z,996.55
2022-08-21T04:53:51.470Z,996.58
2022-08-21T04:54:54.807Z,996.53
2022-08-21T04:55:52.451Z,996.62
2022-08-21T04:56:51.510Z,996.58
2022-08-21T04:57:51.494Z,996.56
2022-08-21T04:58:51.445Z,996.56
2022-08-21T04:59:51.522Z,996.60
2022-08-21T05:00:51.440Z,996.62
2022-08-21T05:01:51.541Z,996.58
2022-08-21T05:02:52.392Z,996.61
2022-08-21T05:03:51.423Z,996.61
2022-08-21T05:04:51.379Z,996.52
2022-08-21T05:05:51.374Z,996.56
2022-08-21T05:06:51.287Z,996.50
2022-08-21T05:07:51.297Z,996.55
2022-08-21T05:08:51.262Z,996.56
2022-08-21T05:09:52.335Z,996.63
2022-08-21T05:10:51.296Z,996.53
2022-08-21T05:11:51.258Z,996.54
2022-08-21T05:12:51.288Z,996.56
2022-08-21T05:13:54.965Z,996.60
2022-08-21T05:14:52.218Z,996.62
2022-08-21T05:15:51.255Z,996.64
2022-08-21T05:16:51.324Z,996.61
2022-08-21T05:17:53.588Z,996.63
2022-08-21T05:18:52.197Z,996.51
2022-08-21T05:19:51.288Z,996.67
2022-08-21T05:20:51.561Z,996.55
2022-08-21T05:21:51.264Z,996.60
2022-08-21T05:22:51.402Z,996.54
2022-08-21T05:23:51.241Z,996.58
2022-08-21T05:24:51.252Z,996.62
2022-08-21T05:25:51.254Z,996.65
2022-08-21T05:26:51.308Z,996.61
2022-08-21T05:27:52.238Z,996.69
2022-08-21T05:28:51.269Z,996.68
2022-08-21T05:29:51.208Z,996.68
2022-08-21T05:30:51.193Z,996.67
2022-08-21T05:31:51.216Z,996.64
2022-08-21T05:32:51.249Z,996.67
2022-08-21T05:33:52.042Z,996.68
2022-08-21T05:34:51.158Z,996.67
2022-08-21T05:35:51.149Z,996.66
2022-08-21T05:36:51.232Z,996.67
2022-08-21T05:37:51.151Z,996.66
2022-08-21T05:38:51.174Z,996.68
2022-08-21T05:40:20.993Z,996.74
2022-08-21T05:40:52.092Z,996.71
2022-08-21T05:41:51.188Z,996.71
2022-08-21T05:42:54.914Z,996.71
2022-08-21T05:43:51.150Z,996.76
2022-08-21T05:44:51.083Z,996.80
2022-08-21T05:45:51.129Z,996.75
2022-08-21T05:46:51.113Z,996.72
2022-08-21T05:47:51.139Z,996.75
2022-08-21T05:48:51.086Z,996.75
2022-08-21T05:49:51.102Z,996.75
2022-08-21T05:50:51.051Z,996.74
2022-08-21T05:51:51.044Z,996.74
2022-08-21T05:52:51.131Z,996.74
2022-08-21T05:53:52.123Z,996.74
2022-08-21T05:54:51.025Z,996.71
2022-08-21T05:55:51.028Z,996.70
2022-08-21T05:56:51.010Z,996.73
2022-08-21T05:57:51.051Z,996.75
2022-08-21T05:58:51.022Z,996.78
2022-08-21T05:59:50.984Z,996.74
2022-08-21T06:00:50.992Z,996.70
2022-08-21T06:01:50.996Z,996.73
2022-08-21T06:02:51.075Z,996.72
2022-08-21T06:03:50.969Z,996.70
2022-08-21T06:04:51.031Z,996.75
2022-08-21T06:05:50.943Z,996.70
2022-08-21T06:06:51.000Z,996.71
2022-08-21T06:07:50.933Z,996.71
2022-08-21T06:08:50.936Z,996.80
2022-08-21T06:09:50.912Z,996.75
2022-08-21T06:10:50.891Z,996.75
2022-08-21T06:11:50.884Z,996.82
2022-08-21T06:12:50.895Z,996.74
2022-08-21T06:13:50.838Z,996.78
2022-08-21T06:14:50.830Z,996.75
2022-08-21T06:15:50.824Z,996.80
2022-08-21T06:16:51.636Z,996.75
2022-08-21T06:17:50.847Z,996.76
2022-08-21T06:18:50.796Z,996.75
2022-08-21T06:19:50.825Z,996.78
2022-08-21T06:20:50.764Z,996.75
2022-08-21T06:21:50.746Z,996.77
2022-08-21T06:22:50.815Z,996.77
2022-08-21T06:23:50.835Z,996.81
2022-08-21T06:24:51.227Z,996.76
2022-08-21T06:25:50.840Z,996.84
2022-08-21T06:26:50.765Z,996.78
2022-08-21T06:27:50.838Z,996.77
2022-08-21T06:28:50.776Z,996.77
2022-08-21T06:29:50.772Z,996.71
2022-08-21T06:30:50.800Z,996.83
2022-08-21T06:31:50.766Z,996.69
2022-08-21T06:32:50.745Z,996.77
2022-08-21T06:33:50.722Z,996.74
2022-08-21T06:34:50.715Z,996.75
2022-08-21T06:35:50.760Z,996.72
2022-08-21T06:36:50.733Z,996.76
2022-08-21T06:37:50.710Z,996.68
2022-08-21T06:38:51.584Z,996.72
2022-08-21T06:39:50.768Z,996.76
2022-08-21T06:40:50.695Z,996.71
2022-08-21T06:41:50.702Z,996.74
2022-08-21T06:42:50.673Z,996.67
2022-08-21T06:43:50.648Z,996.72
2022-08-21T06:44:50.684Z,996.72
2022-08-21T06:45:50.679Z,996.66
2022-08-21T06:46:50.680Z,996.62
2022-08-21T06:47:50.644Z,996.72
2022-08-21T06:48:50.682Z,996.68
2022-08-21T06:49:50.607Z,996.73
2022-08-21T06:50:50.695Z,996.70
2022-08-21T06:51:50.702Z,996.77
2022-08-21T06:52:50.615Z,996.74
2022-08-21T06:53:50.602Z,996.59
2022-08-21T06:54:50.604Z,996.66
2022-08-21T06:55:50.615Z,996.62
2022-08-21T06:56:50.590Z,996.55
2022-08-21T06:57:52.406Z,996.57
2022-08-21T06:58:50.541Z,996.57
2022-08-21T06:59:50.550Z,996.57
2022-08-21T07:00:50.547Z,996.60
2022-08-21T07:01:50.661Z,996.51
2022-08-21T07:02:50.451Z,996.58
2022-08-21T07:03:50.457Z,996.59
2022-08-21T07:04:50.430Z,996.43
2022-08-21T07:05:50.444Z,996.44
2022-08-21T07:06:50.437Z,996.49
2022-08-21T07:07:50.559Z,996.38
2022-08-21T07:08:50.458Z,996.47
2022-08-21T07:09:50.549Z,996.48
2022-08-21T07:10:50.491Z,996.48
2022-08-21T07:11:50.541Z,996.49
2022-08-21T07:12:51.091Z,996.44
2022-08-21T07:13:51.381Z,996.50
2022-08-21T07:14:50.428Z,996.50
2022-08-21T07:15:50.400Z,996.50
2022-08-21T07:16:50.396Z,996.45
2022-08-21T07:17:50.465Z,996.36
2022-08-21T07:18:50.418Z,996.39
2022-08-21T07:19:50.371Z,996.39
2022-08-21T07:20:50.393Z,996.36
2022-08-21T07:21:50.445Z,996.34
2022-08-21T07:22:50.402Z,996.34
2022-08-21T07:23:50.413Z,996.37
2022-08-21T07:24:50.395Z,996.40
2022-08-21T07:25:50.374Z,996.34
2022-08-21T07:26:50.329Z,996.36
2022-08-21T07:27:50.342Z,996.34
2022-08-21T07:28:50.630Z,996.33
2022-08-21T07:29:50.308Z,996.29
2022-08-21T07:30:50.352Z,996.32
2022-08-21T07:31:50.296Z,996.37
2022-08-21T07:32:50.378Z,996.32
2022-08-21T07:33:50.346Z,996.30
2022-08-21T07:34:50.281Z,996.32
2022-08-21T07:35:50.311Z,996.34
2022-08-21T07:36:50.273Z,996.35
2022-08-21T07:37:50.276Z,996.35
2022-08-21T07:38:52.597Z,996.33
2022-08-21T07:39:50.367Z,996.27
2022-08-21T07:40:50.253Z,996.31
2022-08-21T07:41:50.227Z,996.34
2022-08-21T07:42:50.251Z,996.30
2022-08-21T07:43:52.681Z,996.37
2022-08-21T07:44:50.257Z,996.25
2022-08-21T07:45:50.113Z,996.24
2022-08-21T07:46:50.143Z,996.27
2022-08-21T07:47:53.026Z,996.23
2022-08-21T07:48:51.333Z,996.25
2022-08-21T07:49:50.182Z,996.24
2022-08-21T07:50:50.156Z,996.25
2022-08-21T07:51:50.217Z,996.24
2022-08-21T07:52:50.137Z,996.23
2022-08-21T07:53:50.216Z,996.24
2022-08-21T07:54:50.110Z,996.20
2022-08-21T07:55:50.158Z,996.18
2022-08-21T07:56:50.125Z,996.18
2022-08-21T07:57:51.154Z,996.13
2022-08-21T07:58:50.102Z,996.18
2022-08-21T07:59:50.115Z,996.22
2022-08-21T08:00:50.300Z,996.14
2022-08-21T08:01:50.098Z,996.15
2022-08-21T08:02:50.057Z,996.15
2022-08-21T08:03:50.106Z,996.12
2022-08-21T08:04:50.620Z,996.14
2022-08-21T08:05:50.104Z,996.17
2022-08-21T08:06:50.067Z,996.05
2022-08-21T08:07:50.055Z,996.08
2022-08-21T08:08:50.024Z,996.08
2022-08-21T08:09:50.021Z,996.08
2022-08-21T08:10:50.058Z,996.04
2022-08-21T08:11:50.009Z,996.03
2022-08-21T08:12:50.079Z,996.10
2022-08-21T08:13:50.008Z,996.07
2022-08-21T08:14:50.025Z,996.00
2022-08-21T08:15:50.014Z,996.02
2022-08-21T08:16:50.028Z,995.98
2022-08-21T08:17:49.965Z,995.99
2022-08-21T08:18:49.949Z,996.04
2022-08-21T08:19:49.950Z,996.01
2022-08-21T08:20:49.958Z,995.98
2022-08-21T08:21:50.873Z,996.00
2022-08-21T08:22:50.346Z,996.04
2022-08-21T08:23:49.845Z,996.01
2022-08-21T08:24:49.806Z,996.01
2022-08-21T08:25:49.841Z,995.97
2022-08-21T08:26:53.763Z,995.97
2022-08-21T08:27:49.836Z,996.01
2022-08-21T08:28:49.806Z,996.02
2022-08-21T08:29:49.824Z,995.98
2022-08-21T08:30:49.766Z,995.96
2022-08-21T08:31:49.818Z,995.88
2022-08-21T08:32:50.820Z,995.86
2022-08-21T08:33:49.812Z,995.88
2022-08-21T08:34:49.771Z,995.90
2022-08-21T08:35:49.787Z,995.92
2022-08-21T08:36:49.869Z,995.83
2022-08-21T08:37:52.310Z,995.86
2022-08-21T08:38:49.735Z,995.81
2022-08-21T08:39:50.761Z,995.86
2022-08-21T08:40:49.727Z,995.84
2022-08-21T08:41:49.739Z,995.80
2022-08-21T08:42:50.820Z,995.77
2022-08-21T08:43:49.699Z,995.78
2022-08-21T08:44:49.774Z,995.74
2022-08-21T08:45:49.710Z,995.76
2022-08-21T08:46:49.772Z,995.70
2022-08-21T08:47:49.777Z,995.74
2022-08-21T08:48:53.156Z,995.78
2022-08-21T08:49:50.740Z,995.80
2022-08-21T08:50:49.727Z,995.69
2022-08-21T08:51:52.907Z,995.75
2022-08-21T08:52:49.763Z,995.69
2022-08-21T08:53:49.770Z,995.69
2022-08-21T08:54:49.714Z,995.70
2022-08-21T08:55:49.716Z,995.72
2022-08-21T08:56:49.757Z,995.70
2022-08-21T08:57:50.317Z,995.70
2022-08-21T08:58:49.788Z,995.73
2022-08-21T08:59:49.637Z,995.70
2022-08-21T09:00:49.797Z,995.68
2022-08-21T09:01:49.753Z,995.62
2022-08-21T09:02:49.691Z,995.63
2022-08-21T09:03:49.625Z,995.65
2022-08-21T09:04:49.674Z,995.70
2022-08-21T09:05:49.633Z,995.76
2022-08-21T09:06:49.616Z,995.66
2022-08-21T09:07:49.606Z,995.63
2022-08-21T09:08:49.607Z,995.62
2022-08-21T09:09:49.653Z,995.63
2022-08-21T09:10:49.596Z,995.62
2022-08-21T09:11:49.576Z,995.52
2022-08-21T09:12:50.571Z,995.54
2022-08-21T09:13:49.573Z,995.57
2022-08-21T09:14:49.627Z,995.48
2022-08-21T09:15:49.544Z,995.52
2022-08-21T09:16:49.538Z,995.51
2022-08-21T09:17:49.594Z,995.54
2022-08-21T09:18:49.572Z,995.57
2022-08-21T09:19:49.542Z,995.52
2022-08-21T09:20:49.505Z,995.54
2022-08-21T09:21:50.355Z,995.53
2022-08-21T09:22:49.415Z,995.55
2022-08-21T09:23:49.426Z,995.50
2022-08-21T09:24:51.995Z,995.51
2022-08-21T09:25:50.459Z,995.47
2022-08-21T09:26:49.379Z,995.47
2022-08-21T09:27:49.385Z,995.61
2022-08-21T09:28:49.419Z,995.51
2022-08-21T09:29:49.396Z,995.48
2022-08-21T09:30:49.785Z,995.47
2022-08-21T09:31:49.458Z,995.58
2022-08-21T09:32:49.434Z,995.51
2022-08-21T09:33:49.452Z,995.53
2022-08-21T09:34:49.446Z,995.52
2022-08-21T09:35:49.396Z,995.51
2022-08-21T09:36:49.471Z,995.52
2022-08-21T09:37:49.418Z,995.54
2022-08-21T09:38:49.402Z,995.54
2022-08-21T09:39:49.429Z,995.53
2022-08-21T09:40:49.453Z,995.53
2022-08-21T09:41:49.436Z,995.49
2022-08-21T09:42:49.390Z,995.56
2022-08-21T09:43:49.356Z,995.51
2022-08-21T09:44:49.431Z,995.47
2022-08-21T09:45:49.352Z,995.50
2022-08-21T09:46:49.363Z,995.50
2022-08-21T09:47:49.312Z,995.44
2022-08-21T09:48:49.322Z,995.52
2022-08-21T09:49:49.299Z,995.48
2022-08-21T09:50:49.311Z,995.45
2022-08-21T09:51:49.321Z,995.43
2022-08-21T09:52:49.290Z,995.47
2022-08-21T09:53:49.320Z,995.48
2022-08-21T09:54:49.255Z,995.46
2022-08-21T09:55:49.294Z,995.47
2022-08-21T09:56:49.242Z,995.42
2022-08-21T09:57:50.659Z,995.37
2022-08-21T09:58:49.226Z,995.37
2022-08-21T09:59:49.218Z,995.45
2022-08-21T10:00:49.275Z,995.45
2022-08-21T10:01:49.271Z,995.45
2022-08-21T10:02:49.255Z,995.35
2022-08-21T10:03:49.255Z,995.40
2022-08-21T10:04:49.210Z,995.33
2022-08-21T10:05:49.279Z,995.36
2022-08-21T10:06:49.200Z,995.31
2022-08-21T10:07:49.209Z,995.34
2022-08-21T10:08:49.128Z,995.32
2022-08-21T10:09:49.153Z,995.34
2022-08-21T10:10:49.077Z,995.32
2022-08-21T10:11:50.120Z,995.31
2022-08-21T10:12:49.075Z,995.32
2022-08-21T10:13:49.111Z,995.33
2022-08-21T10:14:49.072Z,995.33
2022-08-21T10:15:49.084Z,995.23
2022-08-21T10:16:49.022Z,995.23
2022-08-21T10:17:50.045Z,995.21
2022-08-21T10:18:49.066Z,995.22
2022-08-21T10:19:48.995Z,995.23
2022-08-21T10:20:49.010Z,995.22
2022-08-21T10:21:49.153Z,995.29
2022-08-21T10:22:48.976Z,995.22
2022-08-21T10:23:48.994Z,995.17
2022-08-21T10:24:49.021Z,995.11
2022-08-21T10:25:52.044Z,995.20
2022-08-21T10:26:49.940Z,995.18
2022-08-21T10:27:48.932Z,995.25
2022-08-21T10:28:49.122Z,995.14
2022-08-21T10:29:49.066Z,995.16
2022-08-21T10:30:49.008Z,995.08
2022-08-21T10:31:49.555Z,995.06
2022-08-21T10:32:48.895Z,995.14
2022-08-21T10:33:48.947Z,995.08
2022-08-21T10:34:49.342Z,995.12
2022-08-21T10:35:48.973Z,995.09
2022-08-21T10:36:48.983Z,995.08
2022-08-21T10:37:48.950Z,995.11
2022-08-21T10:39:07.118Z,995.06
2022-08-21T10:39:50.942Z,995.08
2022-08-21T10:40:48.932Z,995.06
2022-08-21T10:41:48.961Z,995.03
2022-08-21T10:42:48.910Z,995.06
2022-08-21T10:43:48.911Z,995.07
2022-08-21T10:44:48.911Z,995.02
2022-08-21T10:45:48.983Z,995.01
2022-08-21T10:46:48.902Z,995.03
2022-08-21T10:47:48.920Z,995.05
2022-08-21T10:48:48.877Z,995.06
2022-08-21T10:49:48.939Z,995.08
2022-08-21T10:50:49.906Z,994.99
2022-08-21T10:51:48.836Z,995.00
2022-08-21T10:52:48.846Z,995.01
2022-08-21T10:53:48.848Z,994.98
2022-08-21T10:54:48.834Z,994.98
2022-08-21T10:55:48.836Z,995.02
2022-08-21T10:56:49.101Z,994.95
2022-08-21T10:57:48.804Z,994.95
2022-08-21T10:58:48.803Z,994.96
2022-08-21T10:59:48.836Z,994.96
2022-08-21T11:00:48.833Z,994.95
2022-08-21T11:01:48.795Z,994.91
2022-08-21T11:02:48.781Z,994.95
2022-08-21T11:03:48.889Z,994.94
2022-08-21T12:20:52.849Z,994.51
2022-08-21T12:21:54.060Z,994.49
2022-08-21T12:22:54.113Z,994.41
2022-08-21T12:23:54.038Z,994.49
2022-08-21T12:24:54.119Z,994.36
2022-08-21T12:25:54.037Z,994.35
2022-08-21T12:26:54.124Z,994.40
2022-08-21T12:27:54.095Z,994.41
2022-08-21T12:28:53.992Z,994.44
2022-08-21T12:29:54.150Z,994.40
2022-08-21T12:30:58.010Z,994.38
2022-08-21T12:31:54.992Z,994.38
2022-08-21T12:32:53.982Z,994.44
2022-08-21T12:33:54.003Z,994.41
2022-08-21T12:34:54.038Z,994.43
2022-08-21T12:35:53.967Z,994.39
2022-08-21T12:36:53.974Z,994.37
2022-08-21T12:37:53.963Z,994.43
2022-08-21T12:38:54.346Z,994.44
2022-08-21T12:39:53.986Z,994.36
2022-08-21T12:40:53.929Z,994.37
2022-08-21T12:41:53.985Z,994.34
2022-08-21T12:43:00.662Z,994.33
2022-08-21T12:43:56.010Z,994.37
2022-08-21T12:44:53.887Z,994.36
2022-08-21T12:45:53.980Z,994.29
2022-08-21T12:46:53.879Z,994.33
2022-08-21T12:47:53.942Z,994.30
2022-08-21T12:48:53.916Z,994.30
2022-08-21T12:49:53.936Z,994.35
2022-08-21T12:50:53.868Z,994.39
2022-08-21T12:51:53.859Z,994.33
2022-08-21T12:52:53.869Z,994.31
2022-08-21T12:53:53.841Z,994.31
2022-08-21T12:54:53.870Z,994.30
2022-08-21T12:55:53.857Z,994.28
2022-08-21T12:56:53.810Z,994.24
2022-08-21T12:57:53.814Z,994.28
2022-08-21T12:58:53.811Z,994.35
2022-08-21T12:59:53.881Z,994.39
2022-08-21T13:00:53.818Z,994.26
2022-08-21T13:01:53.832Z,994.23
2022-08-21T13:02:53.839Z,994.23
2022-08-21T13:04:03.963Z,994.17
2022-08-21T13:04:54.767Z,994.20
2022-08-21T13:05:53.743Z,994.25
2022-08-21T13:06:53.677Z,994.21
2022-08-21T13:07:53.693Z,994.18
2022-08-21T13:08:53.668Z,994.18
2022-08-21T13:09:53.650Z,994.26
2022-08-21T13:10:53.718Z,994.20
2022-08-21T13:11:53.661Z,994.19
2022-08-21T13:12:53.644Z,994.16
2022-08-21T13:13:53.645Z,994.13
2022-08-21T13:14:53.626Z,994.19
2022-08-21T13:15:53.664Z,994.17
2022-08-21T13:16:53.635Z,994.18
2022-08-21T13:17:53.659Z,994.23
2022-08-21T13:18:53.592Z,994.13
2022-08-21T13:19:53.591Z,994.18
2022-08-21T13:20:53.685Z,994.19
2022-08-21T13:21:53.705Z,994.15
2022-08-21T13:22:53.652Z,994.17
2022-08-21T13:23:53.661Z,994.18
2022-08-21T13:24:53.626Z,994.26
2022-08-21T13:25:53.620Z,994.15
2022-08-21T13:26:53.665Z,994.15
2022-08-21T13:27:53.628Z,994.23
2022-08-21T13:28:53.611Z,994.21
2022-08-21T13:29:54.321Z,994.19
2022-08-21T13:30:53.588Z,994.24
2022-08-21T13:31:53.649Z,994.20
2022-08-21T13:32:53.609Z,994.19
2022-08-21T13:33:53.611Z,994.18
2022-08-21T13:34:54.257Z,994.20
2022-08-21T13:35:53.626Z,994.20
2022-08-21T13:36:53.576Z,994.21
2022-08-21T13:37:53.639Z,994.12
2022-08-21T13:38:53.592Z,994.14
2022-08-21T13:39:53.599Z,994.18
2022-08-21T13:40:53.525Z,994.14
2022-08-21T13:41:53.554Z,994.09
2022-08-21T13:42:53.522Z,994.14
2022-08-21T13:43:53.490Z,994.08
2022-08-21T13:44:53.592Z,994.05
2022-08-21T13:45:53.534Z,994.07